sensor_id;sensor_type;location;lat;lon;timestamp;temperature;humidity
28654;DHT22;24320;56.980;24.336;2023-01-10T00:00:38;-2.80;99.90
28654;DHT22;24320;56.980;24.336;2023-01-10T00:03:08;-2.80;99.90
28654;DHT22;24320;56.980;24.336;2023-01-10T00:05:36;-2.80;99.90
28654;DHT22;24320;56.980;24.336;2023-01-10T00:08:05;-2.80;99.90
28654;DHT22;24320;56.980;24.336;2023-01-10T00:10:33;-2.80;99.90
28654;DHT22;24320;56.980;24.336;2023-01-10T00:13:00;-2.80;99.90
28654;DHT22;24320;56.980;24.336;2023-01-10T00:15:46;-2.80;99.90
28654;DHT22;24320;56.980;24.336;2023-01-10T00:18:13;-2.80;99.90
28654;DHT22;24320;56.980;24.336;2023-01-10T00:20:40;-2.80;99.90
28654;DHT22;24320;56.980;24.336;2023-01-10T00:23:08;-2.80;99.90
28654;DHT22;24320;56.980;24.336;2023-01-10T00:25:35;-2.80;99.90
28654;DHT22;24320;56.980;24.336;2023-01-10T00:28:02;-2.80;99.90
28654;DHT22;24320;56.980;24.336;2023-01-10T00:30:52;-2.80;99.90
28654;DHT22;24320;56.980;24.336;2023-01-10T00:33:33;-2.80;99.90
28654;DHT22;24320;56.980;24.336;2023-01-10T00:36:02;-2.80;99.90
28654;DHT22;24320;56.980;24.336;2023-01-10T00:38:30;-2.80;99.90
28654;DHT22;24320;56.980;24.336;2023-01-10T00:40:59;-2.80;99.90
28654;DHT22;24320;56.980;24.336;2023-01-10T00:43:26;-2.80;99.90
28654;DHT22;24320;56.980;24.336;2023-01-10T00:46:11;-2.80;99.90
28654;DHT22;24320;56.980;24.336;2023-01-10T00:48:38;-2.80;99.90
28654;DHT22;24320;56.980;24.336;2023-01-10T00:51:07;-2.80;99.90
28654;DHT22;24320;56.980;24.336;2023-01-10T00:53:34;-2.80;99.90
28654;DHT22;24320;56.980;24.336;2023-01-10T00:56:01;-2.80;99.90
28654;DHT22;24320;56.980;24.336;2023-01-10T00:58:28;-2.80;99.90
28654;DHT22;24320;56.980;24.336;2023-01-10T01:00:55;-2.80;99.90
28654;DHT22;24320;56.980;24.336;2023-01-10T01:03:22;-2.80;99.90
28654;DHT22;24320;56.980;24.336;2023-01-10T01:05:49;-2.80;99.90
28654;DHT22;24320;56.980;24.336;2023-01-10T01:08:17;-2.80;99.90
28654;DHT22;24320;56.980;24.336;2023-01-10T01:10:45;-2.80;99.90
28654;DHT22;24320;56.980;24.336;2023-01-10T01:13:17;-2.80;99.90
28654;DHT22;24320;56.980;24.336;2023-01-10T01:15:45;-2.80;99.90
28654;DHT22;24320;56.980;24.336;2023-01-10T01:18:15;-2.80;99.90
28654;DHT22;24320;56.980;24.336;2023-01-10T01:20:44;-2.80;99.90
28654;DHT22;24320;56.980;24.336;2023-01-10T01:23:11;-2.80;99.90
28654;DHT22;24320;56.980;24.336;2023-01-10T01:25:39;-2.80;99.90
28654;DHT22;24320;56.980;24.336;2023-01-10T01:28:06;-2.80;99.90
28654;DHT22;24320;56.980;24.336;2023-01-10T01:30:33;-2.80;99.90
28654;DHT22;24320;56.980;24.336;2023-01-10T01:33:00;-2.80;99.90
28654;DHT22;24320;56.980;24.336;2023-01-10T01:35:27;-2.80;99.90
28654;DHT22;24320;56.980;24.336;2023-01-10T01:37:55;-2.80;99.90
28654;DHT22;24320;56.980;24.336;2023-01-10T01:40:22;-2.80;99.90
28654;DHT22;24320;56.980;24.336;2023-01-10T01:42:49;-2.70;99.90
28654;DHT22;24320;56.980;24.336;2023-01-10T01:53:09;-2.70;99.90
28654;DHT22;24320;56.980;24.336;2023-01-10T01:55:37;-2.70;99.90
28654;DHT22;24320;56.980;24.336;2023-01-10T01:58:09;-2.70;99.90
28654;DHT22;24320;56.980;24.336;2023-01-10T02:00:38;-2.70;99.90
28654;DHT22;24320;56.980;24.336;2023-01-10T02:03:05;-2.70;99.90
28654;DHT22;24320;56.980;24.336;2023-01-10T02:05:35;-2.70;99.90
28654;DHT22;24320;56.980;24.336;2023-01-10T02:08:04;-2.70;99.90
28654;DHT22;24320;56.980;24.336;2023-01-10T02:13:21;-2.60;99.90
28654;DHT22;24320;56.980;24.336;2023-01-10T02:15:49;-2.70;99.90
28654;DHT22;24320;56.980;24.336;2023-01-10T02:18:17;-2.70;99.90
28654;DHT22;24320;56.980;24.336;2023-01-10T02:23:38;-2.60;99.90
28654;DHT22;24320;56.980;24.336;2023-01-10T02:26:27;-2.70;99.90
28654;DHT22;24320;56.980;24.336;2023-01-10T02:32:54;-2.60;99.90
28654;DHT22;24320;56.980;24.336;2023-01-10T02:43:49;-2.60;99.90
28654;DHT22;24320;56.980;24.336;2023-01-10T02:46:21;-2.60;99.90
28654;DHT22;24320;56.980;24.336;2023-01-10T02:48:52;-2.50;99.90
28654;DHT22;24320;56.980;24.336;2023-01-10T02:51:25;-2.60;99.90
28654;DHT22;24320;56.980;24.336;2023-01-10T02:54:05;-2.60;99.90
28654;DHT22;24320;56.980;24.336;2023-01-10T02:56:54;-2.60;99.90
28654;DHT22;24320;56.980;24.336;2023-01-10T03:07:52;-2.50;99.90
28654;DHT22;24320;56.980;24.336;2023-01-10T03:10:31;-2.50;99.90
28654;DHT22;24320;56.980;24.336;2023-01-10T03:15:32;-2.50;99.90
28654;DHT22;24320;56.980;24.336;2023-01-10T03:18:03;-2.40;99.90
28654;DHT22;24320;56.980;24.336;2023-01-10T03:20:34;-2.40;99.90
28654;DHT22;24320;56.980;24.336;2023-01-10T03:23:04;-2.40;99.90
28654;DHT22;24320;56.980;24.336;2023-01-10T03:25:36;-2.40;99.90
28654;DHT22;24320;56.980;24.336;2023-01-10T03:28:36;-2.40;99.90
28654;DHT22;24320;56.980;24.336;2023-01-10T03:31:13;-2.40;99.90
28654;DHT22;24320;56.980;24.336;2023-01-10T03:33:41;-2.30;99.90
28654;DHT22;24320;56.980;24.336;2023-01-10T03:36:29;-2.30;99.90
28654;DHT22;24320;56.980;24.336;2023-01-10T03:42:10;-2.30;99.90
28654;DHT22;24320;56.980;24.336;2023-01-10T03:47:35;-2.30;99.90
28654;DHT22;24320;56.980;24.336;2023-01-10T03:50:16;-2.30;99.90
28654;DHT22;24320;56.980;24.336;2023-01-10T03:52:45;-2.20;99.90
28654;DHT22;24320;56.980;24.336;2023-01-10T03:55:14;-2.20;99.90
28654;DHT22;24320;56.980;24.336;2023-01-10T03:57:42;-2.20;99.90
28654;DHT22;24320;56.980;24.336;2023-01-10T04:00:12;-2.20;99.90
28654;DHT22;24320;56.980;24.336;2023-01-10T04:02:39;-2.20;99.90
28654;DHT22;24320;56.980;24.336;2023-01-10T04:05:07;-2.10;99.90
28654;DHT22;24320;56.980;24.336;2023-01-10T04:07:34;-2.10;99.90
28654;DHT22;24320;56.980;24.336;2023-01-10T04:10:03;-2.10;99.90
28654;DHT22;24320;56.980;24.336;2023-01-10T04:12:30;-2.10;99.90
28654;DHT22;24320;56.980;24.336;2023-01-10T04:14:57;-2.10;99.90
28654;DHT22;24320;56.980;24.336;2023-01-10T04:17:24;-2.00;99.90
28654;DHT22;24320;56.980;24.336;2023-01-10T04:19:51;-2.00;99.90
28654;DHT22;24320;56.980;24.336;2023-01-10T04:22:18;-2.00;99.90
28654;DHT22;24320;56.980;24.336;2023-01-10T04:24:45;-2.00;99.90
28654;DHT22;24320;56.980;24.336;2023-01-10T04:27:14;-2.00;99.90
28654;DHT22;24320;56.980;24.336;2023-01-10T04:29:41;-2.00;99.90
28654;DHT22;24320;56.980;24.336;2023-01-10T04:32:08;-2.00;99.90
28654;DHT22;24320;56.980;24.336;2023-01-10T04:34:35;-2.00;99.90
28654;DHT22;24320;56.980;24.336;2023-01-10T04:37:02;-2.00;99.90
28654;DHT22;24320;56.980;24.336;2023-01-10T04:39:29;-1.90;99.90
28654;DHT22;24320;56.980;24.336;2023-01-10T04:41:56;-2.00;99.90
28654;DHT22;24320;56.980;24.336;2023-01-10T04:44:23;-1.90;99.90
28654;DHT22;24320;56.980;24.336;2023-01-10T04:46:50;-1.90;99.90
28654;DHT22;24320;56.980;24.336;2023-01-10T04:49:17;-1.90;99.90
28654;DHT22;24320;56.980;24.336;2023-01-10T04:51:44;-1.80;99.90
28654;DHT22;24320;56.980;24.336;2023-01-10T04:54:11;-1.80;99.90
28654;DHT22;24320;56.980;24.336;2023-01-10T04:56:38;-1.80;99.90
28654;DHT22;24320;56.980;24.336;2023-01-10T04:59:05;-1.80;99.90
28654;DHT22;24320;56.980;24.336;2023-01-10T05:01:32;-1.90;99.90
28654;DHT22;24320;56.980;24.336;2023-01-10T05:04:02;-1.80;99.90
28654;DHT22;24320;56.980;24.336;2023-01-10T05:06:29;-1.80;99.90
28654;DHT22;24320;56.980;24.336;2023-01-10T05:08:56;-1.70;99.90
28654;DHT22;24320;56.980;24.336;2023-01-10T05:11:23;-1.70;99.90
28654;DHT22;24320;56.980;24.336;2023-01-10T05:13:50;-1.70;99.90
28654;DHT22;24320;56.980;24.336;2023-01-10T05:16:17;-1.70;99.90
28654;DHT22;24320;56.980;24.336;2023-01-10T05:18:44;-1.60;99.90
28654;DHT22;24320;56.980;24.336;2023-01-10T05:21:12;-1.60;99.90
28654;DHT22;24320;56.980;24.336;2023-01-10T05:23:39;-1.60;99.90
28654;DHT22;24320;56.980;24.336;2023-01-10T05:26:15;-1.60;99.90
28654;DHT22;24320;56.980;24.336;2023-01-10T05:28:42;-1.60;99.90
28654;DHT22;24320;56.980;24.336;2023-01-10T05:31:12;-1.60;99.90
28654;DHT22;24320;56.980;24.336;2023-01-10T05:33:43;-1.60;99.90
28654;DHT22;24320;56.980;24.336;2023-01-10T05:36:22;-1.60;99.90
28654;DHT22;24320;56.980;24.336;2023-01-10T05:38:50;-1.60;99.90
28654;DHT22;24320;56.980;24.336;2023-01-10T05:41:16;-1.50;99.90
28654;DHT22;24320;56.980;24.336;2023-01-10T05:43:43;-1.50;99.90
28654;DHT22;24320;56.980;24.336;2023-01-10T05:46:10;-1.50;99.90
28654;DHT22;24320;56.980;24.336;2023-01-10T05:48:37;-1.40;99.90
28654;DHT22;24320;56.980;24.336;2023-01-10T05:51:05;-1.40;99.90
28654;DHT22;24320;56.980;24.336;2023-01-10T05:53:32;-1.40;99.90
28654;DHT22;24320;56.980;24.336;2023-01-10T05:56:00;-1.40;99.90
28654;DHT22;24320;56.980;24.336;2023-01-10T05:58:28;-1.40;99.90
28654;DHT22;24320;56.980;24.336;2023-01-10T06:00:56;-1.30;99.90
28654;DHT22;24320;56.980;24.336;2023-01-10T06:03:24;-1.40;99.90
28654;DHT22;24320;56.980;24.336;2023-01-10T06:05:53;-1.30;99.90
28654;DHT22;24320;56.980;24.336;2023-01-10T06:08:21;-1.30;99.90
28654;DHT22;24320;56.980;24.336;2023-01-10T06:10:49;-1.30;99.90
28654;DHT22;24320;56.980;24.336;2023-01-10T06:13:16;-1.30;99.90
28654;DHT22;24320;56.980;24.336;2023-01-10T06:15:43;-1.20;99.90
28654;DHT22;24320;56.980;24.336;2023-01-10T06:18:10;-1.20;99.90
28654;DHT22;24320;56.980;24.336;2023-01-10T06:20:39;-1.20;99.90
28654;DHT22;24320;56.980;24.336;2023-01-10T06:23:06;-1.20;99.90
28654;DHT22;24320;56.980;24.336;2023-01-10T06:25:35;-1.20;99.90
28654;DHT22;24320;56.980;24.336;2023-01-10T06:28:03;-1.20;99.90
28654;DHT22;24320;56.980;24.336;2023-01-10T06:30:30;-1.10;99.90
28654;DHT22;24320;56.980;24.336;2023-01-10T06:33:01;-1.10;99.90
28654;DHT22;24320;56.980;24.336;2023-01-10T06:35:29;-1.10;99.90
28654;DHT22;24320;56.980;24.336;2023-01-10T06:37:57;-1.10;99.90
28654;DHT22;24320;56.980;24.336;2023-01-10T06:40:25;-1.10;99.90
28654;DHT22;24320;56.980;24.336;2023-01-10T06:42:52;-1.10;99.90
28654;DHT22;24320;56.980;24.336;2023-01-10T06:45:19;-1.00;99.90
28654;DHT22;24320;56.980;24.336;2023-01-10T06:47:46;-1.00;99.90
28654;DHT22;24320;56.980;24.336;2023-01-10T06:50:13;-1.00;99.90
28654;DHT22;24320;56.980;24.336;2023-01-10T06:52:40;-0.90;99.90
28654;DHT22;24320;56.980;24.336;2023-01-10T06:55:08;-0.90;99.90
28654;DHT22;24320;56.980;24.336;2023-01-10T06:57:35;-0.90;99.90
28654;DHT22;24320;56.980;24.336;2023-01-10T07:00:06;-0.90;99.90
28654;DHT22;24320;56.980;24.336;2023-01-10T07:02:33;-0.80;99.90
28654;DHT22;24320;56.980;24.336;2023-01-10T07:05:00;-0.80;99.90
28654;DHT22;24320;56.980;24.336;2023-01-10T07:07:27;-0.80;99.90
28654;DHT22;24320;56.980;24.336;2023-01-10T07:09:54;-0.80;99.90
28654;DHT22;24320;56.980;24.336;2023-01-10T07:12:21;-0.80;99.90
28654;DHT22;24320;56.980;24.336;2023-01-10T07:14:48;-0.70;99.90
28654;DHT22;24320;56.980;24.336;2023-01-10T07:17:15;-0.70;99.90
28654;DHT22;24320;56.980;24.336;2023-01-10T07:19:42;-0.70;99.90
28654;DHT22;24320;56.980;24.336;2023-01-10T07:22:10;-0.60;99.90
28654;DHT22;24320;56.980;24.336;2023-01-10T07:24:37;-0.60;99.90
28654;DHT22;24320;56.980;24.336;2023-01-10T07:27:04;-0.50;99.90
28654;DHT22;24320;56.980;24.336;2023-01-10T07:29:31;-0.50;99.90
28654;DHT22;24320;56.980;24.336;2023-01-10T07:31:58;-0.40;99.90
28654;DHT22;24320;56.980;24.336;2023-01-10T07:34:25;-0.40;99.90
28654;DHT22;24320;56.980;24.336;2023-01-10T07:36:52;-0.40;99.90
28654;DHT22;24320;56.980;24.336;2023-01-10T07:39:19;-0.30;99.90
28654;DHT22;24320;56.980;24.336;2023-01-10T07:41:47;-0.30;99.90
28654;DHT22;24320;56.980;24.336;2023-01-10T07:44:15;-0.30;99.90
28654;DHT22;24320;56.980;24.336;2023-01-10T07:46:42;-0.30;99.90
28654;DHT22;24320;56.980;24.336;2023-01-10T07:49:09;-0.20;99.90
28654;DHT22;24320;56.980;24.336;2023-01-10T07:51:36;-0.20;99.90
28654;DHT22;24320;56.980;24.336;2023-01-10T07:54:03;-0.10;99.90
28654;DHT22;24320;56.980;24.336;2023-01-10T07:56:30;-0.10;99.90
28654;DHT22;24320;56.980;24.336;2023-01-10T07:58:57;0.00;99.90
28654;DHT22;24320;56.980;24.336;2023-01-10T08:01:27;0.00;99.90
28654;DHT22;24320;56.980;24.336;2023-01-10T08:03:56;0.00;99.90
28654;DHT22;24320;56.980;24.336;2023-01-10T08:06:24;0.10;99.90
28654;DHT22;24320;56.980;24.336;2023-01-10T08:08:51;0.10;99.90
28654;DHT22;24320;56.980;24.336;2023-01-10T08:11:18;0.10;99.90
28654;DHT22;24320;56.980;24.336;2023-01-10T08:13:45;0.20;99.90
28654;DHT22;24320;56.980;24.336;2023-01-10T08:16:12;0.20;99.90
28654;DHT22;24320;56.980;24.336;2023-01-10T08:18:40;0.30;99.90
28654;DHT22;24320;56.980;24.336;2023-01-10T08:21:09;0.30;99.90
28654;DHT22;24320;56.980;24.336;2023-01-10T08:23:36;0.30;99.90
28654;DHT22;24320;56.980;24.336;2023-01-10T08:26:04;0.40;99.90
28654;DHT22;24320;56.980;24.336;2023-01-10T08:28:32;0.40;99.90
28654;DHT22;24320;56.980;24.336;2023-01-10T08:31:04;0.50;99.90
28654;DHT22;24320;56.980;24.336;2023-01-10T08:33:31;0.50;99.90
28654;DHT22;24320;56.980;24.336;2023-01-10T08:35:58;0.50;99.90
28654;DHT22;24320;56.980;24.336;2023-01-10T08:38:25;0.60;99.90
28654;DHT22;24320;56.980;24.336;2023-01-10T08:40:55;0.60;99.90
28654;DHT22;24320;56.980;24.336;2023-01-10T08:43:23;0.60;99.90
28654;DHT22;24320;56.980;24.336;2023-01-10T08:45:50;0.70;99.90
28654;DHT22;24320;56.980;24.336;2023-01-10T08:48:17;0.80;99.90
28654;DHT22;24320;56.980;24.336;2023-01-10T08:50:44;0.80;99.90
28654;DHT22;24320;56.980;24.336;2023-01-10T08:53:11;0.90;99.90
28654;DHT22;24320;56.980;24.336;2023-01-10T08:55:39;0.90;99.90
28654;DHT22;24320;56.980;24.336;2023-01-10T08:58:06;0.90;99.90
28654;DHT22;24320;56.980;24.336;2023-01-10T09:00:34;1.00;99.90
28654;DHT22;24320;56.980;24.336;2023-01-10T09:03:04;1.00;99.90
28654;DHT22;24320;56.980;24.336;2023-01-10T09:05:31;1.00;99.90
28654;DHT22;24320;56.980;24.336;2023-01-10T09:08:00;1.00;99.90
28654;DHT22;24320;56.980;24.336;2023-01-10T09:10:28;1.10;99.90
28654;DHT22;24320;56.980;24.336;2023-01-10T09:12:57;1.10;99.90
28654;DHT22;24320;56.980;24.336;2023-01-10T09:15:29;1.20;99.90
28654;DHT22;24320;56.980;24.336;2023-01-10T09:18:01;1.30;99.90
28654;DHT22;24320;56.980;24.336;2023-01-10T09:20:31;1.30;99.90
28654;DHT22;24320;56.980;24.336;2023-01-10T09:23:13;1.30;99.90
28654;DHT22;24320;56.980;24.336;2023-01-10T09:25:46;1.40;99.90
28654;DHT22;24320;56.980;24.336;2023-01-10T09:28:21;1.40;99.90
28654;DHT22;24320;56.980;24.336;2023-01-10T09:30:50;1.50;99.90
28654;DHT22;24320;56.980;24.336;2023-01-10T09:33:18;1.60;99.90
28654;DHT22;24320;56.980;24.336;2023-01-10T09:35:45;1.70;99.90
28654;DHT22;24320;56.980;24.336;2023-01-10T09:38:14;1.70;99.90
28654;DHT22;24320;56.980;24.336;2023-01-10T09:43:59;1.80;99.90
28654;DHT22;24320;56.980;24.336;2023-01-10T09:51:49;1.90;99.90
28654;DHT22;24320;56.980;24.336;2023-01-10T09:54:30;1.90;99.90
28654;DHT22;24320;56.980;24.336;2023-01-10T09:57:00;2.00;99.90
28654;DHT22;24320;56.980;24.336;2023-01-10T09:59:36;2.00;99.90
28654;DHT22;24320;56.980;24.336;2023-01-10T10:05:07;2.10;99.90
28654;DHT22;24320;56.980;24.336;2023-01-10T10:07:35;2.10;99.90
28654;DHT22;24320;56.980;24.336;2023-01-10T10:10:04;2.00;99.90
28654;DHT22;24320;56.980;24.336;2023-01-10T10:12:42;2.00;99.90
28654;DHT22;24320;56.980;24.336;2023-01-10T10:34:32;2.20;99.90
28654;DHT22;24320;56.980;24.336;2023-01-10T10:37:16;2.30;99.90
28654;DHT22;24320;56.980;24.336;2023-01-10T10:39:57;2.30;99.90
28654;DHT22;24320;56.980;24.336;2023-01-10T10:42:33;2.30;99.90
28654;DHT22;24320;56.980;24.336;2023-01-10T10:48:32;2.30;99.90
28654;DHT22;24320;56.980;24.336;2023-01-10T10:53:44;2.40;99.90
28654;DHT22;24320;56.980;24.336;2023-01-10T10:56:15;2.40;99.90
28654;DHT22;24320;56.980;24.336;2023-01-10T10:58:44;2.40;99.90
28654;DHT22;24320;56.980;24.336;2023-01-10T11:01:15;2.40;99.90
28654;DHT22;24320;56.980;24.336;2023-01-10T11:03:55;2.40;99.90
28654;DHT22;24320;56.980;24.336;2023-01-10T11:06:25;2.40;99.90
28654;DHT22;24320;56.980;24.336;2023-01-10T11:08:59;2.50;99.90
28654;DHT22;24320;56.980;24.336;2023-01-10T11:11:42;2.50;99.90
28654;DHT22;24320;56.980;24.336;2023-01-10T11:14:11;2.50;99.90
28654;DHT22;24320;56.980;24.336;2023-01-10T11:16:40;2.60;99.90
28654;DHT22;24320;56.980;24.336;2023-01-10T11:19:09;2.60;99.90
28654;DHT22;24320;56.980;24.336;2023-01-10T11:21:38;2.60;99.90
28654;DHT22;24320;56.980;24.336;2023-01-10T11:24:20;2.60;99.90
28654;DHT22;24320;56.980;24.336;2023-01-10T11:26:48;2.60;99.90
28654;DHT22;24320;56.980;24.336;2023-01-10T11:31:50;2.60;99.90
28654;DHT22;24320;56.980;24.336;2023-01-10T11:34:30;2.60;99.90
28654;DHT22;24320;56.980;24.336;2023-01-10T11:39:28;2.60;99.90
28654;DHT22;24320;56.980;24.336;2023-01-10T11:41:55;2.60;99.90
28654;DHT22;24320;56.980;24.336;2023-01-10T11:44:27;2.60;99.90
28654;DHT22;24320;56.980;24.336;2023-01-10T11:46:58;2.50;99.90
28654;DHT22;24320;56.980;24.336;2023-01-10T11:49:33;2.50;99.90
28654;DHT22;24320;56.980;24.336;2023-01-10T11:52:24;2.60;99.90
28654;DHT22;24320;56.980;24.336;2023-01-10T11:54:53;2.60;99.90
28654;DHT22;24320;56.980;24.336;2023-01-10T11:57:26;2.60;99.90
28654;DHT22;24320;56.980;24.336;2023-01-10T12:00:03;2.50;99.90
28654;DHT22;24320;56.980;24.336;2023-01-10T12:02:41;2.50;99.90
28654;DHT22;24320;56.980;24.336;2023-01-10T12:05:19;2.50;99.90
28654;DHT22;24320;56.980;24.336;2023-01-10T12:08:04;2.60;99.90
28654;DHT22;24320;56.980;24.336;2023-01-10T12:10:34;2.50;99.90
28654;DHT22;24320;56.980;24.336;2023-01-10T12:13:14;2.60;99.90
28654;DHT22;24320;56.980;24.336;2023-01-10T12:15:41;2.60;99.90
28654;DHT22;24320;56.980;24.336;2023-01-10T12:18:09;2.60;99.90
28654;DHT22;24320;56.980;24.336;2023-01-10T12:20:48;2.60;99.90
28654;DHT22;24320;56.980;24.336;2023-01-10T12:23:18;2.60;99.90
28654;DHT22;24320;56.980;24.336;2023-01-10T12:25:47;2.60;99.90
28654;DHT22;24320;56.980;24.336;2023-01-10T12:28:19;2.60;99.90
28654;DHT22;24320;56.980;24.336;2023-01-10T12:30:48;2.60;99.90
28654;DHT22;24320;56.980;24.336;2023-01-10T12:33:32;2.60;99.90
28654;DHT22;24320;56.980;24.336;2023-01-10T12:39:16;2.60;99.90
28654;DHT22;24320;56.980;24.336;2023-01-10T12:44:39;2.60;99.90
28654;DHT22;24320;56.980;24.336;2023-01-10T12:54:57;2.60;99.90
28654;DHT22;24320;56.980;24.336;2023-01-10T12:57:35;2.50;99.90
28654;DHT22;24320;56.980;24.336;2023-01-10T13:00:07;2.50;99.90
28654;DHT22;24320;56.980;24.336;2023-01-10T13:02:42;2.60;99.90
28654;DHT22;24320;56.980;24.336;2023-01-10T13:05:22;2.50;99.90
28654;DHT22;24320;56.980;24.336;2023-01-10T13:07:51;2.50;99.90
28654;DHT22;24320;56.980;24.336;2023-01-10T13:10:22;2.50;99.90
28654;DHT22;24320;56.980;24.336;2023-01-10T13:13:05;2.50;99.90
28654;DHT22;24320;56.980;24.336;2023-01-10T13:15:50;2.50;99.90
28654;DHT22;24320;56.980;24.336;2023-01-10T13:18:25;2.50;99.90
28654;DHT22;24320;56.980;24.336;2023-01-10T13:21:09;2.50;99.90
28654;DHT22;24320;56.980;24.336;2023-01-10T13:23:48;2.50;99.90
28654;DHT22;24320;56.980;24.336;2023-01-10T13:26:16;2.50;99.90
28654;DHT22;24320;56.980;24.336;2023-01-10T13:28:58;2.50;99.90
28654;DHT22;24320;56.980;24.336;2023-01-10T13:31:33;2.50;99.90
28654;DHT22;24320;56.980;24.336;2023-01-10T13:34:06;2.50;99.90
28654;DHT22;24320;56.980;24.336;2023-01-10T13:36:59;2.50;99.90
28654;DHT22;24320;56.980;24.336;2023-01-10T13:39:33;2.50;99.90
28654;DHT22;24320;56.980;24.336;2023-01-10T14:00:53;2.30;99.90
28654;DHT22;24320;56.980;24.336;2023-01-10T14:03:42;2.30;99.90
28654;DHT22;24320;56.980;24.336;2023-01-10T14:09:05;2.40;99.90
28654;DHT22;24320;56.980;24.336;2023-01-10T14:11:53;2.40;99.90
28654;DHT22;24320;56.980;24.336;2023-01-10T14:14:39;2.30;99.90
28654;DHT22;24320;56.980;24.336;2023-01-10T14:19:37;2.40;99.90
28654;DHT22;24320;56.980;24.336;2023-01-10T14:22:23;2.40;99.90
28654;DHT22;24320;56.980;24.336;2023-01-10T14:24:52;2.40;99.90
28654;DHT22;24320;56.980;24.336;2023-01-10T14:27:20;2.50;99.90
28654;DHT22;24320;56.980;24.336;2023-01-10T14:29:58;2.40;99.90
28654;DHT22;24320;56.980;24.336;2023-01-10T14:32:38;2.40;99.90
28654;DHT22;24320;56.980;24.336;2023-01-10T14:35:08;2.40;99.90
28654;DHT22;24320;56.980;24.336;2023-01-10T14:37:43;2.50;99.90
28654;DHT22;24320;56.980;24.336;2023-01-10T14:43:13;2.50;99.90
28654;DHT22;24320;56.980;24.336;2023-01-10T14:48:26;2.40;99.90
28654;DHT22;24320;56.980;24.336;2023-01-10T14:51:23;2.40;99.90
28654;DHT22;24320;56.980;24.336;2023-01-10T14:53:57;2.40;99.90
28654;DHT22;24320;56.980;24.336;2023-01-10T14:56:35;2.40;99.90
28654;DHT22;24320;56.980;24.336;2023-01-10T14:59:26;2.30;99.90
28654;DHT22;24320;56.980;24.336;2023-01-10T15:01:59;2.30;99.90
28654;DHT22;24320;56.980;24.336;2023-01-10T15:04:29;2.30;99.90
28654;DHT22;24320;56.980;24.336;2023-01-10T15:07:00;2.30;99.90
28654;DHT22;24320;56.980;24.336;2023-01-10T15:09:30;2.30;99.90
28654;DHT22;24320;56.980;24.336;2023-01-10T15:12:00;2.30;99.90
28654;DHT22;24320;56.980;24.336;2023-01-10T15:14:28;2.40;99.90
28654;DHT22;24320;56.980;24.336;2023-01-10T15:16:58;2.40;99.90
28654;DHT22;24320;56.980;24.336;2023-01-10T15:19:33;2.40;99.90
28654;DHT22;24320;56.980;24.336;2023-01-10T15:22:01;2.40;99.90
28654;DHT22;24320;56.980;24.336;2023-01-10T15:24:34;2.30;99.90
28654;DHT22;24320;56.980;24.336;2023-01-10T15:27:13;2.30;99.90
28654;DHT22;24320;56.980;24.336;2023-01-10T15:29:41;2.30;99.90
28654;DHT22;24320;56.980;24.336;2023-01-10T15:32:18;2.30;99.90
28654;DHT22;24320;56.980;24.336;2023-01-10T15:34:52;2.30;99.90
28654;DHT22;24320;56.980;24.336;2023-01-10T15:37:34;2.30;99.90
28654;DHT22;24320;56.980;24.336;2023-01-10T15:40:04;2.30;99.90
28654;DHT22;24320;56.980;24.336;2023-01-10T15:42:33;2.30;99.90
28654;DHT22;24320;56.980;24.336;2023-01-10T15:45:29;2.20;99.90
28654;DHT22;24320;56.980;24.336;2023-01-10T15:48:03;2.30;99.90
28654;DHT22;24320;56.980;24.336;2023-01-10T15:50:32;2.20;99.90
28654;DHT22;24320;56.980;24.336;2023-01-10T15:53:09;2.20;99.90
28654;DHT22;24320;56.980;24.336;2023-01-10T15:55:52;2.20;99.90
28654;DHT22;24320;56.980;24.336;2023-01-10T15:58:29;2.20;99.90
28654;DHT22;24320;56.980;24.336;2023-01-10T16:00:57;2.20;99.90
28654;DHT22;24320;56.980;24.336;2023-01-10T16:03:26;2.20;99.90
28654;DHT22;24320;56.980;24.336;2023-01-10T16:05:57;2.20;99.90
28654;DHT22;24320;56.980;24.336;2023-01-10T16:08:30;2.20;99.90
28654;DHT22;24320;56.980;24.336;2023-01-10T16:10:59;2.20;99.90
28654;DHT22;24320;56.980;24.336;2023-01-10T16:13:27;2.20;99.90
28654;DHT22;24320;56.980;24.336;2023-01-10T16:15:55;2.30;99.90
28654;DHT22;24320;56.980;24.336;2023-01-10T16:18:23;2.20;99.90
28654;DHT22;24320;56.980;24.336;2023-01-10T16:20:54;2.20;99.90
28654;DHT22;24320;56.980;24.336;2023-01-10T16:23:25;2.20;99.90
28654;DHT22;24320;56.980;24.336;2023-01-10T16:25:56;2.20;99.90
28654;DHT22;24320;56.980;24.336;2023-01-10T16:30:54;2.10;99.90
28654;DHT22;24320;56.980;24.336;2023-01-10T16:33:23;2.20;99.90
28654;DHT22;24320;56.980;24.336;2023-01-10T16:35:57;2.20;99.90
28654;DHT22;24320;56.980;24.336;2023-01-10T16:38:26;2.20;99.90
28654;DHT22;24320;56.980;24.336;2023-01-10T16:41:01;2.20;99.90
28654;DHT22;24320;56.980;24.336;2023-01-10T16:43:51;2.30;99.90
28654;DHT22;24320;56.980;24.336;2023-01-10T16:46:20;2.30;99.90
28654;DHT22;24320;56.980;24.336;2023-01-10T16:48:47;2.30;99.90
28654;DHT22;24320;56.980;24.336;2023-01-10T16:51:18;2.30;99.90
28654;DHT22;24320;56.980;24.336;2023-01-10T16:53:46;2.30;99.90
28654;DHT22;24320;56.980;24.336;2023-01-10T16:56:16;2.20;99.90
28654;DHT22;24320;56.980;24.336;2023-01-10T16:58:43;2.20;99.90
28654;DHT22;24320;56.980;24.336;2023-01-10T17:01:15;2.20;99.90
28654;DHT22;24320;56.980;24.336;2023-01-10T17:03:43;2.20;99.90
28654;DHT22;24320;56.980;24.336;2023-01-10T17:06:11;2.20;99.90
28654;DHT22;24320;56.980;24.336;2023-01-10T17:08:39;2.20;99.90
28654;DHT22;24320;56.980;24.336;2023-01-10T17:11:11;2.10;99.90
28654;DHT22;24320;56.980;24.336;2023-01-10T17:13:42;2.20;99.90
28654;DHT22;24320;56.980;24.336;2023-01-10T17:16:09;2.20;99.90
28654;DHT22;24320;56.980;24.336;2023-01-10T17:18:37;2.20;99.90
28654;DHT22;24320;56.980;24.336;2023-01-10T17:21:10;2.20;99.90
28654;DHT22;24320;56.980;24.336;2023-01-10T17:23:39;2.10;99.90
28654;DHT22;24320;56.980;24.336;2023-01-10T17:26:09;2.10;99.90
28654;DHT22;24320;56.980;24.336;2023-01-10T17:28:36;2.10;99.90
28654;DHT22;24320;56.980;24.336;2023-01-10T17:31:04;2.10;99.90
28654;DHT22;24320;56.980;24.336;2023-01-10T17:33:31;2.10;99.90
28654;DHT22;24320;56.980;24.336;2023-01-10T17:36:06;2.10;99.90
28654;DHT22;24320;56.980;24.336;2023-01-10T17:38:33;2.10;99.90
28654;DHT22;24320;56.980;24.336;2023-01-10T17:41:03;2.10;99.90
28654;DHT22;24320;56.980;24.336;2023-01-10T17:43:30;2.10;99.90
28654;DHT22;24320;56.980;24.336;2023-01-10T17:45:57;2.10;99.90
28654;DHT22;24320;56.980;24.336;2023-01-10T17:48:25;2.10;99.90
28654;DHT22;24320;56.980;24.336;2023-01-10T17:50:57;2.10;99.90
28654;DHT22;24320;56.980;24.336;2023-01-10T17:53:25;2.10;99.90
28654;DHT22;24320;56.980;24.336;2023-01-10T17:55:53;2.10;99.90
28654;DHT22;24320;56.980;24.336;2023-01-10T17:58:21;2.10;99.90